Kezdőlap
METAR-TAF:

METAR-TAF

Repülőterek :

Hobart, Oklahoma, Amerikai Egyesült Államok

földrajzi szélesség: 34-59-22N, földrajzi hosszúság: 099-03-09W, magasság: 476 m

Jelenlegi meteorológiai megfigyelések

A jelentés 43 perccel ezelõtt készült, 13:53 UTC
Déli szél 19 kt széllökések: 28 kt
Hőmérséklet 25°C
Páratartalom 79%
Légköri nyomás 1010 hPa
Látótávolság: 16.1 km
Szakadozott felhőzet 2200 lábon
Borult 2600 lábon

METAR: KHBR 181353Z AUTO 19019G28KT 10SM BKN022 OVC026 25/21 A2982 RMK AO2 PK WND 19032/1300 SLP078 T02500206

Idő: 09:36 (14:36 UTC)


TAF: hiányzik

Meteorológiai megfigyelések és előrejelzések több, mint 4000 repülőtéren (METAR és TAF jelentéseket).

A térképen piros és sárga pontok jelzik az elérhető meteorológiai állomásokat.

Mozgassa az egeret a pont fölött, hogy megjelenjen az állomás neve.

Azután kattintson az időjárási megfigyelések és előrejelzések megtekintéséhez.

A térkép megváltoztatása: kattintson a fekete keresztel jelölt zöld gombra ráközelítéshez, a vonallal jelölt zöld gombra távolításhoz, vagy a zöld nyilakra a szomszédos térképek eléréséhez.


METAR-TAF: